createdAt,value
2023-06-27T00:01:05.392Z,98311.39
2023-06-27T00:04:01.656Z,98308.90
2023-06-27T00:06:53.897Z,98293.91
2023-06-27T00:09:46.092Z,98291.10
2023-06-27T00:12:38.387Z,98285.11
2023-06-27T00:15:35.278Z,98295.45
2023-06-27T00:18:35.433Z,98317.80
2023-06-27T00:21:30.496Z,98324.63
2023-06-27T00:24:22.655Z,98324.25
2023-06-27T00:27:16.595Z,98315.62
2023-06-27T00:30:10.284Z,98318.55
2023-06-27T00:33:02.402Z,98321.20
2023-06-27T00:35:54.541Z,98333.70
2023-06-27T00:38:46.772Z,98346.17
2023-06-27T00:41:38.816Z,98354.69
2023-06-27T00:44:30.809Z,98359.67
2023-06-27T00:47:23.589Z,98357.61
2023-06-27T00:50:16.113Z,98353.55
2023-06-27T00:53:08.199Z,98349.90
2023-06-27T00:56:00.434Z,98346.05
2023-06-27T00:58:52.808Z,98358.84
2023-06-27T01:01:46.891Z,98366.46
2023-06-27T01:04:40.231Z,98364.08
2023-06-27T01:07:38.902Z,98353.89
2023-06-27T01:10:37.415Z,98370.91
2023-06-27T01:13:34.833Z,98385.29
2023-06-27T01:16:30.743Z,98392.88
2023-06-27T01:19:27.805Z,98391.05
2023-06-27T01:22:30.344Z,98376.73
2023-06-27T01:25:19.002Z,98326.78
2023-06-27T01:28:15.756Z,98272.79
2023-06-27T01:31:08.163Z,98268.06
2023-06-27T01:34:05.531Z,98250.27
2023-06-27T01:37:02.644Z,98253.81
2023-06-27T01:39:59.801Z,98263.63
2023-06-27T01:42:55.942Z,98269.17
2023-06-27T01:45:48.410Z,98282.02
2023-06-27T01:48:42.816Z,98287.02
2023-06-27T01:51:34.962Z,98285.61
2023-06-27T01:54:27.179Z,98282.79
2023-06-27T01:57:19.254Z,98292.95
2023-06-27T02:00:12.649Z,98304.61
2023-06-27T02:03:04.927Z,98318.20
2023-06-27T02:05:57.191Z,98322.35
2023-06-27T02:08:49.290Z,98328.11
2023-06-27T02:11:41.388Z,98323.98
2023-06-27T02:14:33.470Z,98323.73
2023-06-27T02:17:25.522Z,98325.89
2023-06-27T02:20:17.533Z,98325.54
2023-06-27T02:23:09.555Z,98322.85
2023-06-27T02:26:03.431Z,98318.95
2023-06-27T02:28:55.458Z,98318.64
2023-06-27T02:31:47.522Z,98316.75
2023-06-27T02:34:39.561Z,98320.63
2023-06-27T02:37:31.650Z,98322.58
2023-06-27T02:40:24.120Z,98325.48
2023-06-27T02:43:16.246Z,98324.73
2023-06-27T02:46:08.346Z,98327.02
2023-06-27T02:49:00.500Z,98332.42
2023-06-27T02:51:52.629Z,98337.05
2023-06-27T02:54:44.693Z,98335.10
2023-06-27T02:57:36.798Z,98335.54
2023-06-27T03:00:28.941Z,98331.26
2023-06-27T03:03:21.109Z,98330.96
2023-06-27T03:06:14.056Z,98320.16
2023-06-27T03:09:06.157Z,98318.16
2023-06-27T03:11:58.220Z,98324.42
2023-06-27T03:14:50.395Z,98323.97
2023-06-27T03:17:43.083Z,98325.28
2023-06-27T03:20:35.382Z,98325.02
2023-06-27T03:23:27.794Z,98323.41
2023-06-27T03:26:24.349Z,98321.45
2023-06-27T03:29:16.670Z,98323.20
2023-06-27T03:32:10.296Z,98320.84
2023-06-27T03:35:02.573Z,98324.73
2023-06-27T03:37:54.670Z,98326.50
2023-06-27T03:40:46.685Z,98332.11
2023-06-27T03:43:38.718Z,98330.06
2023-06-27T03:46:30.757Z,98329.06
2023-06-27T03:49:23.861Z,98330.27
2023-06-27T03:52:15.967Z,98330.84
2023-06-27T03:55:09.013Z,98329.47
2023-06-27T03:58:01.051Z,98333.92
2023-06-27T04:00:55.829Z,98332.67
2023-06-27T04:03:47.922Z,98333.48
2023-06-27T04:06:40.110Z,98338.35
2023-06-27T04:09:31.968Z,98340.24
2023-06-27T04:12:24.017Z,98337.66
2023-06-27T04:15:16.165Z,98336.30
2023-06-27T04:18:08.603Z,98338.65
2023-06-27T04:21:00.763Z,98338.90
2023-06-27T04:23:54.666Z,98335.63
2023-06-27T04:26:35.376Z,98335.88
2023-06-27T04:29:27.806Z,98336.42
2023-06-27T04:32:19.959Z,98336.23
2023-06-27T04:35:16.598Z,98337.95
2023-06-27T04:38:10.024Z,98339.77
2023-06-27T04:41:04.545Z,98342.02
2023-06-27T04:43:58.702Z,98347.20
2023-06-27T04:46:49.227Z,98347.61
2023-06-27T04:49:41.226Z,98349.23
2023-06-27T04:52:33.301Z,98353.33
2023-06-27T04:55:25.668Z,98357.15
2023-06-27T04:58:17.904Z,98359.52
2023-06-27T05:00:53.466Z,98363.44
2023-06-27T05:03:45.632Z,98367.17
2023-06-27T05:06:37.798Z,98363.89
2023-06-27T05:09:12.336Z,98367.38
2023-06-27T05:12:04.854Z,98375.28
2023-06-27T05:14:56.936Z,98376.27
2023-06-27T05:17:54.189Z,98377.78
2023-06-27T05:20:26.369Z,98380.83
2023-06-27T05:23:18.592Z,98386.86
2023-06-27T05:26:10.643Z,98389.33
2023-06-27T05:29:02.740Z,98394.55
2023-06-27T05:31:54.778Z,98395.70
2023-06-27T05:34:48.876Z,98401.35
2023-06-27T05:37:42.666Z,98403.41
2023-06-27T05:40:35.034Z,98407.06
2023-06-27T05:43:27.230Z,98412.44
2023-06-27T05:46:19.292Z,98414.10
2023-06-27T05:49:11.327Z,98415.00
2023-06-27T05:52:03.346Z,98414.43
2023-06-27T05:54:55.354Z,98417.15
2023-06-27T05:57:33.004Z,98423.80
2023-06-27T06:00:25.221Z,98432.63
2023-06-27T06:03:17.962Z,98431.85
2023-06-27T06:06:11.551Z,98438.90
2023-06-27T06:09:04.178Z,98442.95
2023-06-27T06:11:56.321Z,98440.66
2023-06-27T06:14:48.432Z,98440.23
2023-06-27T06:17:40.527Z,98434.48
2023-06-27T06:20:33.074Z,98439.13
2023-06-27T06:23:25.198Z,98450.28
2023-06-27T06:26:17.303Z,98456.73
2023-06-27T06:29:14.120Z,98460.65
2023-06-27T06:32:07.096Z,98460.77
2023-06-27T06:34:44.430Z,98457.65
2023-06-27T06:37:36.471Z,98459.98
2023-06-27T06:40:18.686Z,98458.44
2023-06-27T06:43:10.779Z,98458.20
2023-06-27T06:46:03.130Z,98457.23
2023-06-27T06:48:37.927Z,98458.82
2023-06-27T06:51:38.416Z,98464.04
2023-06-27T06:54:26.571Z,98473.26
2023-06-27T06:57:18.815Z,98472.96
2023-06-27T07:00:14.906Z,98467.79
2023-06-27T07:03:10.056Z,98466.98
2023-06-27T07:06:02.221Z,98471.09
2023-06-27T07:08:55.041Z,98470.30
2023-06-27T07:11:48.757Z,98466.92
2023-06-27T07:14:25.853Z,98465.69
2023-06-27T07:17:18.084Z,98461.92
2023-06-27T07:19:50.042Z,98458.91
2023-06-27T07:22:43.071Z,98465.52
2023-06-27T07:25:36.734Z,98466.39
2023-06-27T07:28:28.838Z,98465.58
2023-06-27T07:31:20.965Z,98468.88
2023-06-27T07:34:13.073Z,98469.09
2023-06-27T07:37:05.339Z,98466.41
2023-06-27T07:39:59.092Z,98461.48
2023-06-27T07:42:51.108Z,98463.64
2023-06-27T07:45:43.696Z,98467.90
2023-06-27T07:48:35.793Z,98466.04
2023-06-27T07:51:16.711Z,98465.89
2023-06-27T07:54:10.691Z,98472.90
2023-06-27T07:57:02.857Z,98481.55
2023-06-27T07:59:54.918Z,98484.31
2023-06-27T08:02:46.963Z,98484.83
2023-06-27T08:05:42.145Z,98487.81
2023-06-27T08:08:37.503Z,98490.36
2023-06-27T08:11:20.218Z,98490.35
2023-06-27T08:14:12.302Z,98487.16
2023-06-27T08:17:04.323Z,98496.08
2023-06-27T08:19:56.375Z,98492.53
2023-06-27T08:22:48.393Z,98496.47
2023-06-27T08:25:40.493Z,98499.32
2023-06-27T08:28:33.432Z,98502.06
2023-06-27T08:31:25.546Z,98501.02
2023-06-27T08:34:17.662Z,98498.55
2023-06-27T08:37:11.115Z,98503.87
2023-06-27T08:39:53.846Z,98503.86
2023-06-27T08:42:45.896Z,98501.52
2023-06-27T08:45:27.047Z,98503.14
2023-06-27T08:48:13.326Z,98500.65
2023-06-27T08:51:07.144Z,98500.58
2023-06-27T08:53:50.908Z,98499.95
2023-06-27T08:56:44.083Z,98493.51
2023-06-27T08:59:37.971Z,98492.17
2023-06-27T09:02:30.976Z,98499.20
2023-06-27T09:05:24.009Z,98501.64
2023-06-27T09:08:16.469Z,98497.80
2023-06-27T09:11:11.091Z,98500.27
2023-06-27T09:14:04.038Z,98503.80
2023-06-27T09:16:56.285Z,98504.42
2023-06-27T09:19:48.512Z,98508.99
2023-06-27T09:22:25.352Z,98510.90
2023-06-27T09:25:20.854Z,98510.73
2023-06-27T09:28:19.785Z,98515.12
2023-06-27T09:31:01.749Z,98515.20
2023-06-27T09:34:06.570Z,98512.73
2023-06-27T09:39:59.536Z,98513.51
2023-06-27T09:42:56.402Z,98519.86
2023-06-27T09:46:00.852Z,98522.61
2023-06-27T09:48:55.514Z,98526.71
2023-06-27T09:51:50.766Z,98529.88
2023-06-27T09:54:48.559Z,98531.70
2023-06-27T09:57:44.474Z,98525.70
2023-06-27T10:00:36.536Z,98529.45
2023-06-27T10:03:29.426Z,98535.40
2023-06-27T10:06:21.953Z,98534.92
2023-06-27T10:09:14.827Z,98537.43
2023-06-27T10:12:08.682Z,98535.37
2023-06-27T10:15:02.139Z,98536.94
2023-06-27T10:17:54.614Z,98535.29
2023-06-27T10:20:47.020Z,98533.38
2023-06-27T10:23:22.408Z,98533.95
2023-06-27T10:26:14.437Z,98540.16
2023-06-27T10:29:18.784Z,98538.04
2023-06-27T10:32:11.206Z,98543.38
2023-06-27T10:35:14.521Z,98536.05
2023-06-27T10:38:11.104Z,98536.63
2023-06-27T10:41:13.065Z,98540.40
2023-06-27T10:44:13.768Z,98537.52
2023-06-27T10:47:31.000Z,98537.28
2023-06-27T10:50:27.070Z,98525.11
2023-06-27T10:53:19.350Z,98523.33
2023-06-27T10:56:29.421Z,98520.63
2023-06-27T10:59:23.787Z,98520.84
2023-06-27T11:02:16.897Z,98519.16
2023-06-27T11:05:17.434Z,98510.40
2023-06-27T11:08:16.317Z,98510.75
2023-06-27T11:11:10.940Z,98508.28
2023-06-27T11:14:09.119Z,98509.31
2023-06-27T11:17:01.864Z,98506.76
2023-06-27T11:19:57.891Z,98498.84
2023-06-27T11:22:50.013Z,98497.73
2023-06-27T11:25:44.566Z,98488.13
2023-06-27T11:28:37.594Z,98482.64
2023-06-27T11:31:30.195Z,98482.83
2023-06-27T11:34:22.351Z,98486.40
2023-06-27T11:37:15.581Z,98486.56
2023-06-27T11:40:17.133Z,98484.58
2023-06-27T11:43:11.206Z,98480.08
2023-06-27T11:46:03.887Z,98480.94
2023-06-27T11:48:56.006Z,98483.15
2023-06-27T11:51:41.301Z,98474.42
2023-06-27T11:54:33.367Z,98472.62
2023-06-27T11:57:14.829Z,98471.11
2023-06-27T12:00:14.446Z,98466.27
2023-06-27T12:03:07.707Z,98468.20
2023-06-27T12:06:02.090Z,98467.90
2023-06-27T12:08:54.150Z,98460.88
2023-06-27T12:11:46.189Z,98453.31
2023-06-27T12:14:38.231Z,98447.94
2023-06-27T12:17:30.284Z,98445.66
2023-06-27T12:20:22.367Z,98447.77
2023-06-27T12:23:14.530Z,98443.14
2023-06-27T12:26:06.482Z,98439.70
2023-06-27T12:28:59.782Z,98435.13
2023-06-27T12:31:53.140Z,98434.84
2023-06-27T12:34:45.216Z,98434.50
2023-06-27T12:37:37.385Z,98434.16
2023-06-27T12:40:29.680Z,98434.89
2023-06-27T12:43:21.916Z,98427.20
2023-06-27T12:46:15.047Z,98422.30
2023-06-27T12:49:07.100Z,98425.35
2023-06-27T12:51:59.125Z,98430.84
2023-06-27T12:54:51.231Z,98423.65
2023-06-27T12:57:43.328Z,98421.91
2023-06-27T13:00:38.979Z,98415.05
2023-06-27T13:03:32.458Z,98414.80
2023-06-27T13:06:24.674Z,98419.10
2023-06-27T13:09:16.754Z,98415.02
2023-06-27T13:11:55.302Z,98411.21
2023-06-27T13:14:47.314Z,98411.70
2023-06-27T13:17:41.528Z,98417.09
2023-06-27T13:20:33.738Z,98419.26
2023-06-27T13:23:25.772Z,98440.77
2023-06-27T13:26:17.816Z,98447.74
2023-06-27T13:29:10.287Z,98449.14
2023-06-27T13:31:58.864Z,98453.06
2023-06-27T13:34:35.933Z,98456.60
2023-06-27T13:37:28.212Z,98460.60
2023-06-27T13:40:20.289Z,98461.30
2023-06-27T13:43:12.348Z,98458.98
2023-06-27T13:46:04.922Z,98456.61
2023-06-27T13:48:58.329Z,98453.13
2023-06-27T13:51:50.355Z,98447.77
2023-06-27T13:54:42.558Z,98449.20
2023-06-27T13:57:17.551Z,98447.61
2023-06-27T13:59:58.587Z,98443.02
2023-06-27T14:02:50.794Z,98440.71
2023-06-27T14:05:44.379Z,98440.02
2023-06-27T14:08:36.413Z,98437.81
2023-06-27T14:11:30.087Z,98438.05
2023-06-27T14:14:22.492Z,98439.95
2023-06-27T14:17:14.554Z,98436.55
2023-06-27T14:20:09.391Z,98431.74
2023-06-27T14:23:02.013Z,98431.05
2023-06-27T14:25:54.160Z,98428.30
2023-06-27T14:28:46.961Z,98427.48
2023-06-27T14:31:26.852Z,98427.12
2023-06-27T14:34:02.736Z,98422.33
2023-06-27T14:36:57.053Z,98420.58
2023-06-27T14:39:45.614Z,98416.95
2023-06-27T14:42:19.678Z,98418.12
2023-06-27T14:45:13.276Z,98414.04
2023-06-27T14:48:05.698Z,98412.30
2023-06-27T14:50:58.491Z,98408.45
2023-06-27T14:53:50.621Z,98407.46
2023-06-27T14:56:26.662Z,98406.61
2023-06-27T14:59:18.794Z,98405.05
2023-06-27T15:02:11.113Z,98404.25
2023-06-27T15:05:03.308Z,98407.93
2023-06-27T15:07:55.718Z,98412.95
2023-06-27T15:10:48.373Z,98411.88
2023-06-27T15:13:41.186Z,98415.71
2023-06-27T15:16:33.279Z,98418.49
2023-06-27T15:19:25.281Z,98415.32
2023-06-27T15:22:17.304Z,98410.45
2023-06-27T15:25:10.806Z,98408.03
2023-06-27T15:28:04.562Z,98409.17
2023-06-27T15:30:45.692Z,98404.70
2023-06-27T15:33:37.876Z,98413.39
2023-06-27T15:36:31.863Z,98414.16
2023-06-27T15:39:23.981Z,98415.92
2023-06-27T15:42:16.357Z,98416.02
2023-06-27T15:45:10.446Z,98417.80
2023-06-27T15:48:00.994Z,98416.08
2023-06-27T15:50:53.144Z,98414.86
2023-06-27T15:53:45.214Z,98417.95
2023-06-27T15:56:37.344Z,98418.71
2023-06-27T15:59:29.429Z,98418.92
2023-06-27T16:02:21.476Z,98420.09
2023-06-27T16:05:14.282Z,98422.89
2023-06-27T16:08:06.966Z,98427.60
2023-06-27T16:10:59.047Z,98434.77
2023-06-27T16:13:51.054Z,98439.52
2023-06-27T16:16:43.127Z,98434.94
2023-06-27T16:19:17.714Z,98434.13
2023-06-27T16:22:09.816Z,98433.26
2023-06-27T16:25:02.787Z,98435.66
2023-06-27T16:27:54.835Z,98437.31
2023-06-27T16:30:48.382Z,98435.25
2023-06-27T16:33:40.680Z,98435.44
2023-06-27T16:36:32.777Z,98435.56
2023-06-27T16:39:24.913Z,98438.81
2023-06-27T16:42:17.286Z,98439.24
2023-06-27T16:45:11.666Z,98435.67
2023-06-27T16:48:03.863Z,98436.90
2023-06-27T16:50:41.611Z,98440.77
2023-06-27T16:53:34.063Z,98442.14
2023-06-27T16:56:26.206Z,98443.63
2023-06-27T16:59:18.710Z,98439.02
2023-06-27T17:02:10.899Z,98435.17
2023-06-27T17:04:45.927Z,98435.11
2023-06-27T17:07:17.934Z,98435.12
2023-06-27T17:10:11.288Z,98438.28
2023-06-27T17:13:03.380Z,98442.98
2023-06-27T17:15:56.926Z,98443.73
2023-06-27T17:18:48.961Z,98450.98
2023-06-27T17:21:30.617Z,98449.84
2023-06-27T17:24:22.717Z,98448.54
2023-06-27T17:27:14.951Z,98452.62
2023-06-27T17:30:08.346Z,98452.13
2023-06-27T17:33:00.546Z,98453.72
2023-06-27T17:35:42.188Z,98458.27
2023-06-27T17:38:35.693Z,98454.09
2023-06-27T17:41:27.783Z,98457.87
2023-06-27T17:44:19.812Z,98462.13
2023-06-27T17:47:13.802Z,98467.88
2023-06-27T17:49:51.253Z,98466.32
2023-06-27T17:52:43.811Z,98468.00
2023-06-27T17:55:35.888Z,98467.51
2023-06-27T17:58:28.637Z,98473.30
2023-06-27T18:01:20.769Z,98473.42
2023-06-27T18:04:12.923Z,98471.94
2023-06-27T18:07:05.234Z,98471.15
2023-06-27T18:09:57.327Z,98470.73
2023-06-27T18:12:49.365Z,98472.63
2023-06-27T18:15:26.379Z,98470.46
2023-06-27T18:18:18.455Z,98477.09
2023-06-27T18:21:10.520Z,98478.84
2023-06-27T18:24:03.289Z,98477.12
2023-06-27T18:26:55.315Z,98475.88
2023-06-27T18:29:49.079Z,98477.33
2023-06-27T18:32:44.096Z,98477.17
2023-06-27T18:35:39.004Z,98473.04
2023-06-27T18:38:32.026Z,98469.91
2023-06-27T18:41:24.048Z,98466.02
2023-06-27T18:44:16.552Z,98474.08
2023-06-27T18:46:58.545Z,98481.31
2023-06-27T18:49:50.701Z,98477.59
2023-06-27T18:52:42.902Z,98472.27
2023-06-27T18:55:34.948Z,98474.06
2023-06-27T18:58:27.316Z,98474.44
2023-06-27T19:01:02.688Z,98477.52
2023-06-27T19:03:54.911Z,98482.38
2023-06-27T19:06:50.981Z,98488.36
2023-06-27T19:09:43.331Z,98481.64
2023-06-27T19:12:35.409Z,98492.57
2023-06-27T19:15:27.455Z,98495.55
2023-06-27T19:18:02.245Z,98505.98
2023-06-27T19:20:54.869Z,98506.56
2023-06-27T19:23:47.348Z,98509.46
2023-06-27T19:26:39.364Z,98511.86
2023-06-27T19:29:31.520Z,98513.80
2023-06-27T19:32:23.917Z,98513.69
2023-06-27T19:35:16.675Z,98515.24
2023-06-27T19:38:08.819Z,98515.71
2023-06-27T19:41:00.898Z,98515.34
2023-06-27T19:43:35.432Z,98516.21
2023-06-27T19:46:27.573Z,98515.49
2023-06-27T19:49:19.685Z,98514.52
2023-06-27T19:52:11.944Z,98519.44
2023-06-27T19:55:04.064Z,98517.11
2023-06-27T19:57:59.021Z,98519.44
2023-06-27T20:00:51.270Z,98519.89
2023-06-27T20:03:43.518Z,98518.30
2023-06-27T20:06:35.569Z,98520.68
2023-06-27T20:09:27.830Z,98522.64
2023-06-27T20:12:20.043Z,98531.19
2023-06-27T20:15:13.748Z,98534.48
2023-06-27T20:18:06.054Z,98531.17
2023-06-27T20:20:58.605Z,98534.67
2023-06-27T20:23:50.687Z,98530.30
2023-06-27T20:26:42.744Z,98528.64
2023-06-27T20:29:35.130Z,98528.34
2023-06-27T20:32:27.223Z,98529.20
2023-06-27T20:35:20.419Z,98529.42
2023-06-27T20:38:12.729Z,98529.26
2023-06-27T20:41:04.768Z,98523.14
2023-06-27T20:43:57.050Z,98524.48
2023-06-27T20:46:52.363Z,98524.48
2023-06-27T20:49:44.514Z,98523.23
2023-06-27T20:52:36.527Z,98523.08
2023-06-27T20:55:29.064Z,98526.14
2023-06-27T20:58:21.182Z,98519.52
2023-06-27T21:01:13.710Z,98523.09
2023-06-27T21:04:07.031Z,98520.31
2023-06-27T21:06:59.393Z,98522.61
2023-06-27T21:09:51.421Z,98524.61
2023-06-27T21:12:43.696Z,98525.02
2023-06-27T21:15:35.717Z,98523.80
2023-06-27T21:18:28.661Z,98523.08
2023-06-27T21:21:21.087Z,98521.44
2023-06-27T21:24:13.166Z,98517.14
2023-06-27T21:27:05.481Z,98518.02
2023-06-27T21:29:57.671Z,98513.01
2023-06-27T21:32:49.755Z,98510.51
2023-06-27T21:35:41.945Z,98509.35
2023-06-27T21:38:34.092Z,98509.91
2023-06-27T21:41:26.111Z,98509.33
2023-06-27T21:44:18.252Z,98509.52
2023-06-27T21:47:10.591Z,98506.58
2023-06-27T21:50:04.117Z,98503.16
2023-06-27T21:52:56.274Z,98507.05
2023-06-27T21:55:48.637Z,98506.48
2023-06-27T21:58:40.678Z,98503.34
2023-06-27T22:01:33.153Z,98502.41
2023-06-27T22:04:25.328Z,98505.35
2023-06-27T22:07:17.619Z,98508.73
2023-06-27T22:10:11.051Z,98510.17
2023-06-27T22:13:03.238Z,98509.18
2023-06-27T22:15:55.642Z,98506.55
2023-06-27T22:18:50.074Z,98513.05
2023-06-27T22:21:42.130Z,98514.44
2023-06-27T22:24:34.253Z,98513.29
2023-06-27T22:27:10.163Z,98517.56
2023-06-27T22:30:03.343Z,98521.26
2023-06-27T22:32:55.462Z,98520.27
2023-06-27T22:35:37.723Z,98523.42
2023-06-27T22:38:29.768Z,98519.36
2023-06-27T22:41:21.878Z,98516.06
2023-06-27T22:44:13.967Z,98522.66
2023-06-27T22:47:06.645Z,98529.02
2023-06-27T22:49:58.734Z,98531.81
2023-06-27T22:52:50.847Z,98535.77
2023-06-27T22:55:42.863Z,98536.56
2023-06-27T22:58:35.491Z,98534.11
2023-06-27T23:01:27.562Z,98539.27
2023-06-27T23:04:19.642Z,98536.33
2023-06-27T23:07:11.772Z,98532.81
2023-06-27T23:10:03.839Z,98540.27
2023-06-27T23:12:55.877Z,98541.65
2023-06-27T23:15:50.330Z,98539.28
2023-06-27T23:18:42.934Z,98541.61
2023-06-27T23:21:36.551Z,98539.52
2023-06-27T23:24:28.816Z,98539.59
2023-06-27T23:27:21.133Z,98540.64
2023-06-27T23:30:16.979Z,98534.40
2023-06-27T23:33:10.779Z,98538.42
2023-06-27T23:36:03.156Z,98541.23
2023-06-27T23:38:55.128Z,98533.68
2023-06-27T23:41:47.149Z,98533.25
2023-06-27T23:44:39.170Z,98533.17
2023-06-27T23:47:31.351Z,98532.88
2023-06-27T23:50:23.694Z,98536.98
2023-06-27T23:53:15.886Z,98537.15
2023-06-27T23:56:08.582Z,98533.22
2023-06-27T23:59:00.683Z,98538.77
